Time;durP1;ratioP1;P1;durP2;ratioP2;P2;SDS_P1;SDS_P2;PMS_P1;PMS_P2;Temp;Humidity;BMP_temperature;BMP_pressure;BME280_temperature;BME280_humidity;BME280_pressure;Samples;Min_cycle;Max_cycle;Signal;HPM_P1;HPM_P2
2022/05/14 00:02:01;;;;;;;;;;;14.40;68.70;;;;;;5112008;28;19916;-78
2022/05/14 00:04:26;;;;;;;;;;;14.30;68.90;;;;;;5111896;28;19907;-77
2022/05/14 00:06:52;;;;;;;;;;;14.30;69.40;;;;;;5093541;28;19916;-62
2022/05/14 00:09:17;;;;;;;;;;;14.20;69.70;;;;;;5112216;28;20354;-77
2022/05/14 00:14:27;;;;;;;;;;;14.20;69.90;;;;;;5112302;28;19974;-76
2022/05/14 00:16:53;;;;;;;;;;;14.10;69.90;;;;;;5093536;28;19919;-78
2022/05/14 00:19:19;;;;;;;;;;;14.10;69.80;;;;;;5111682;28;19912;-78
2022/05/14 00:21:44;;;;;;;;;;;14.10;70.10;;;;;;5111711;28;20162;-77
2022/05/14 00:24:10;;;;;;;;;;;14.10;70.20;;;;;;5093532;28;19912;-77
2022/05/14 00:26:36;;;;;;;;;;;14.10;70.40;;;;;;5111715;28;19968;-77
2022/05/14 00:29:03;;;;;;;;;;;14.10;70.40;;;;;;5093287;28;19911;-78
2022/05/14 00:31:29;;;;;;;;;;;14.10;70.40;;;;;;5094086;28;19916;-78
2022/05/14 00:33:55;;;;;;;;;;;14.10;70.30;;;;;;5111764;28;19912;-77
2022/05/14 00:36:21;;;;;;;;;;;14.00;70.40;;;;;;5093254;28;20290;-76
2022/05/14 00:38:46;;;;;;;;;;;14.00;70.40;;;;;;5093158;28;19908;-78
2022/05/14 00:41:12;;;;;;;;;;;14.00;70.40;;;;;;5111543;28;20490;-80
2022/05/14 00:43:55;;;;;;;;;;;14.00;70.40;;;;;;5111308;28;19914;-78
2022/05/14 00:46:22;;;;;;;;;;;14.00;70.60;;;;;;5111272;28;19962;-79
2022/05/14 00:48:48;;;;;;;;;;;13.90;70.70;;;;;;5111287;28;19916;-79
2022/05/14 00:51:16;;;;;;;;;;;13.90;70.70;;;;;;5111774;28;19931;-77
2022/05/14 00:53:44;;;;;;;;;;;13.90;71.00;;;;;;5111230;28;19908;-76
2022/05/14 00:56:13;;;;;;;;;;;13.90;71.30;;;;;;5093143;28;20273;-78
2022/05/14 00:58:54;;;;;;;;;;;13.80;71.50;;;;;;5092742;28;19962;-78
2022/05/14 01:01:20;;;;;;;;;;;13.80;71.40;;;;;;5109755;28;19912;-78
2022/05/14 01:03:46;;;;;;;;;;;13.80;71.60;;;;;;5092827;28;19922;-76
2022/05/14 01:06:14;;;;;;;;;;;13.70;71.40;;;;;;5092420;28;19914;-78
2022/05/14 01:08:40;;;;;;;;;;;13.70;71.40;;;;;;5092338;28;19992;-77
2022/05/14 01:11:05;;;;;;;;;;;13.70;71.40;;;;;;5110943;28;19908;-79
2022/05/14 01:13:31;;;;;;;;;;;13.70;71.30;;;;;;5110899;28;19908;-78
2022/05/14 01:15:59;;;;;;;;;;;13.70;71.30;;;;;;5110571;28;19998;-76
2022/05/14 01:18:26;;;;;;;;;;;13.70;71.40;;;;;;5110452;28;19934;-78
2022/05/14 01:20:55;;;;;;;;;;;13.70;71.30;;;;;;5110621;28;19908;-78
2022/05/14 01:23:20;;;;;;;;;;;13.70;71.30;;;;;;5110519;28;20066;-78
2022/05/14 01:28:49;;;;;;;;;;;13.60;71.20;;;;;;5110249;28;20296;-77
2022/05/14 01:31:14;;;;;;;;;;;13.60;71.20;;;;;;5092112;28;19908;-79
2022/05/14 01:33:40;;;;;;;;;;;13.60;71.20;;;;;;5092138;28;19923;-76
2022/05/14 01:36:07;;;;;;;;;;;13.50;71.20;;;;;;5110592;28;20366;-78
2022/05/14 01:38:33;;;;;;;;;;;13.50;71.30;;;;;;5110182;28;20135;-79
2022/05/14 01:40:59;;;;;;;;;;;13.40;71.40;;;;;;5091997;28;20362;-76
2022/05/14 01:43:25;;;;;;;;;;;13.40;71.50;;;;;;5110178;28;20415;-76
2022/05/14 01:45:50;;;;;;;;;;;13.30;71.50;;;;;;5110206;28;19961;-77
2022/05/14 01:48:16;;;;;;;;;;;13.30;71.70;;;;;;5091609;28;19928;-77
2022/05/14 01:50:42;;;;;;;;;;;13.20;71.90;;;;;;5110251;28;19955;-76
2022/05/14 01:53:08;;;;;;;;;;;13.20;72.20;;;;;;5091787;28;19958;-78
2022/05/14 01:55:34;;;;;;;;;;;13.10;72.20;;;;;;5110036;28;19958;-76
2022/05/14 01:58:00;;;;;;;;;;;13.10;72.40;;;;;;5091706;28;19907;-77
2022/05/14 02:00:25;;;;;;;;;;;13.10;72.50;;;;;;5109794;28;20281;-77
2022/05/14 02:02:51;;;;;;;;;;;13.00;72.50;;;;;;5109732;28;19915;-77
2022/05/14 02:05:17;;;;;;;;;;;13.00;72.50;;;;;;5111742;28;19922;-77
2022/05/14 02:07:42;;;;;;;;;;;12.90;72.40;;;;;;5110033;28;19908;-77
2022/05/14 02:10:08;;;;;;;;;;;12.90;72.50;;;;;;5091699;28;20001;-77
2022/05/14 02:12:34;;;;;;;;;;;12.90;72.70;;;;;;5091028;28;19954;-77
2022/05/14 02:15:00;;;;;;;;;;;12.80;72.50;;;;;;5091376;28;19912;-75
2022/05/14 02:17:26;;;;;;;;;;;12.80;72.50;;;;;;5109659;28;19918;-78
2022/05/14 02:19:52;;;;;;;;;;;12.80;72.50;;;;;;5091272;28;20297;-78
2022/05/14 02:22:17;;;;;;;;;;;12.70;72.80;;;;;;5091198;28;19911;-78
2022/05/14 02:24:43;;;;;;;;;;;12.70;72.90;;;;;;5091315;28;19919;-77
2022/05/14 02:27:08;;;;;;;;;;;12.70;73.00;;;;;;5091141;28;20369;-77
2022/05/14 02:29:53;;;;;;;;;;;12.70;72.90;;;;;;5074246;28;19920;-77
2022/05/14 02:32:21;;;;;;;;;;;12.70;73.10;;;;;;5109433;28;20384;-78
2022/05/14 02:34:47;;;;;;;;;;;12.70;73.00;;;;;;5109444;28;19912;-79
2022/05/14 02:37:13;;;;;;;;;;;12.70;73.10;;;;;;5109168;28;19922;-80
2022/05/14 02:39:39;;;;;;;;;;;12.60;73.10;;;;;;5091281;28;19912;-77
2022/05/14 02:42:04;;;;;;;;;;;12.60;73.10;;;;;;5109258;28;20011;-78
2022/05/14 02:44:30;;;;;;;;;;;12.60;73.00;;;;;;5090806;28;20038;-79
2022/05/14 02:46:55;;;;;;;;;;;12.60;72.90;;;;;;5090920;28;19924;-79
2022/05/14 02:49:23;;;;;;;;;;;12.50;73.00;;;;;;5108212;28;20446;-78
2022/05/14 02:51:49;;;;;;;;;;;12.50;73.30;;;;;;5109093;28;19916;-78
2022/05/14 02:54:15;;;;;;;;;;;12.40;73.30;;;;;;5090954;28;19912;-77
2022/05/14 02:56:40;;;;;;;;;;;12.40;73.60;;;;;;5090856;28;19950;-77
2022/05/14 02:59:09;;;;;;;;;;;12.40;73.80;;;;;;5108523;28;20261;-73
2022/05/14 03:01:36;;;;;;;;;;;12.40;73.80;;;;;;5090534;28;20346;-78
2022/05/14 03:04:04;;;;;;;;;;;12.40;73.90;;;;;;5108931;28;19968;-78
2022/05/14 03:06:30;;;;;;;;;;;12.30;74.00;;;;;;5090578;28;19907;-78
2022/05/14 03:08:56;;;;;;;;;;;12.30;74.20;;;;;;5090558;28;19980;-78
2022/05/14 03:11:21;;;;;;;;;;;12.30;74.20;;;;;;5108396;28;19911;-77
2022/05/14 03:13:48;;;;;;;;;;;12.20;74.20;;;;;;5089984;28;20030;-78
2022/05/14 03:16:14;;;;;;;;;;;12.20;74.30;;;;;;5090325;28;19911;-77
2022/05/14 03:18:41;;;;;;;;;;;12.20;74.40;;;;;;5108278;28;19907;-77
2022/05/14 03:21:06;;;;;;;;;;;12.10;74.60;;;;;;5090086;28;20109;-78
2022/05/14 03:23:32;;;;;;;;;;;12.10;74.60;;;;;;5089948;28;19912;-80
2022/05/14 03:25:57;;;;;;;;;;;12.10;74.70;;;;;;5108511;28;19968;-79
2022/05/14 03:28:23;;;;;;;;;;;12.00;75.00;;;;;;5108706;28;20289;-78
2022/05/14 03:30:48;;;;;;;;;;;12.00;75.20;;;;;;5108479;28;19958;-77
2022/05/14 03:33:14;;;;;;;;;;;11.90;75.60;;;;;;5108559;28;19912;-77
2022/05/14 03:35:40;;;;;;;;;;;11.90;75.40;;;;;;5090343;28;19908;-78
2022/05/14 03:38:05;;;;;;;;;;;11.90;75.50;;;;;;5090105;28;20053;-78
2022/05/14 03:40:31;;;;;;;;;;;11.90;75.80;;;;;;5090267;28;20206;-78
2022/05/14 03:42:57;;;;;;;;;;;11.80;75.60;;;;;;5090178;28;19916;-77
2022/05/14 03:45:22;;;;;;;;;;;11.80;75.60;;;;;;5090226;28;19972;-78
2022/05/14 03:47:48;;;;;;;;;;;11.80;75.90;;;;;;5108147;28;20353;-77
2022/05/14 03:50:13;;;;;;;;;;;11.80;75.90;;;;;;5108311;28;19927;-78
2022/05/14 03:52:39;;;;;;;;;;;11.80;75.90;;;;;;5108458;28;20342;-77
2022/05/14 03:55:05;;;;;;;;;;;11.80;75.90;;;;;;5108205;28;19916;-79
2022/05/14 03:57:30;;;;;;;;;;;11.70;75.90;;;;;;5089843;28;19918;-78
2022/05/14 03:59:56;;;;;;;;;;;11.70;76.10;;;;;;5108407;28;20320;-77
2022/05/14 04:02:22;;;;;;;;;;;11.70;76.20;;;;;;5089968;28;20034;-76
2022/05/14 04:04:47;;;;;;;;;;;11.70;76.40;;;;;;5108244;28;19908;-78
2022/05/14 04:07:13;;;;;;;;;;;11.70;76.60;;;;;;5108195;28;20375;-78
2022/05/14 04:09:38;;;;;;;;;;;11.70;76.50;;;;;;5089791;28;20377;-79
2022/05/14 04:12:04;;;;;;;;;;;11.60;76.50;;;;;;5089867;28;20599;-79
2022/05/14 04:14:30;;;;;;;;;;;11.60;76.50;;;;;;5108044;28;19908;-78
2022/05/14 04:16:55;;;;;;;;;;;11.60;76.50;;;;;;5108143;28;19912;-76
2022/05/14 04:19:21;;;;;;;;;;;11.60;76.40;;;;;;5072855;28;19915;-79
2022/05/14 04:21:47;;;;;;;;;;;11.60;76.30;;;;;;5108067;28;20006;-77
2022/05/14 04:24:13;;;;;;;;;;;11.60;76.60;;;;;;5089691;28;19911;-78
2022/05/14 04:26:39;;;;;;;;;;;11.60;76.70;;;;;;5089630;28;19908;-78
2022/05/14 04:29:04;;;;;;;;;;;11.60;76.70;;;;;;5089402;28;19933;-79
2022/05/14 04:31:31;;;;;;;;;;;11.60;76.90;;;;;;5072793;28;20041;-77
2022/05/14 04:33:57;;;;;;;;;;;11.60;76.70;;;;;;5107892;28;19919;-78
2022/05/14 04:36:23;;;;;;;;;;;11.60;76.70;;;;;;5110629;28;20365;-79
2022/05/14 04:38:49;;;;;;;;;;;11.60;76.70;;;;;;5093014;28;19912;-78
2022/05/14 04:41:15;;;;;;;;;;;11.60;76.70;;;;;;5111386;28;19908;-77
2022/05/14 04:43:41;;;;;;;;;;;11.60;76.60;;;;;;5111339;28;19927;-77
2022/05/14 04:46:07;;;;;;;;;;;11.60;76.70;;;;;;5111170;28;20357;-77
2022/05/14 04:48:37;;;;;;;;;;;11.70;76.70;;;;;;5093128;28;19912;-79
2022/05/14 04:51:03;;;;;;;;;;;11.70;76.80;;;;;;5111428;28;19973;-77
2022/05/14 04:53:28;;;;;;;;;;;11.70;76.90;;;;;;5111415;28;19908;-78
2022/05/14 04:55:54;;;;;;;;;;;11.70;76.90;;;;;;5092912;28;19918;-77
2022/05/14 04:58:20;;;;;;;;;;;11.70;76.90;;;;;;5092790;28;19976;-78
2022/05/14 05:00:46;;;;;;;;;;;11.80;77.00;;;;;;5111192;28;19916;-76
2022/05/14 05:03:17;;;;;;;;;;;11.80;77.00;;;;;;5092556;28;19908;-77
2022/05/14 05:05:48;;;;;;;;;;;11.80;76.90;;;;;;5092797;28;19911;-77
2022/05/14 05:08:13;;;;;;;;;;;11.90;76.90;;;;;;5110899;28;19916;-79
2022/05/14 05:10:39;;;;;;;;;;;11.90;76.80;;;;;;5092572;28;19920;-78
2022/05/14 05:13:08;;;;;;;;;;;12.00;77.10;;;;;;5092708;28;19912;-78
2022/05/14 05:15:34;;;;;;;;;;;12.00;77.10;;;;;;5111021;28;19908;-78
2022/05/14 05:17:59;;;;;;;;;;;12.00;77.10;;;;;;5075626;28;19911;-77
2022/05/14 05:20:25;;;;;;;;;;;12.10;77.10;;;;;;5110706;28;19916;-78
2022/05/14 05:22:50;;;;;;;;;;;12.10;77.70;;;;;;5110591;28;20270;-77
2022/05/14 05:25:16;;;;;;;;;;;12.10;77.20;;;;;;5092508;28;19919;-77
2022/05/14 05:27:42;;;;;;;;;;;12.20;77.20;;;;;;5092188;28;19915;-78
2022/05/14 05:30:08;;;;;;;;;;;12.20;77.30;;;;;;5091898;28;19958;-79
2022/05/14 05:32:34;;;;;;;;;;;12.30;77.30;;;;;;5091874;28;20138;-77
2022/05/14 05:34:59;;;;;;;;;;;12.30;77.50;;;;;;5110687;28;20334;-79
2022/05/14 05:37:25;;;;;;;;;;;12.40;77.50;;;;;;5092133;28;20011;-77
2022/05/14 05:39:51;;;;;;;;;;;12.40;77.50;;;;;;5110426;28;20338;-78
2022/05/14 05:42:16;;;;;;;;;;;12.40;77.50;;;;;;5110467;28;20382;-77
2022/05/14 05:44:42;;;;;;;;;;;12.50;77.50;;;;;;5075054;28;19912;-78
2022/05/14 05:47:07;;;;;;;;;;;12.60;77.40;;;;;;5090925;28;19923;-79
2022/05/14 05:49:33;;;;;;;;;;;12.70;77.50;;;;;;5091791;28;20367;-76
2022/05/14 05:51:59;;;;;;;;;;;12.80;77.50;;;;;;5110000;28;20385;-79
2022/05/14 05:57:09;;;;;;;;;;;13.00;77.60;;;;;;5110159;28;19922;-78
2022/05/14 05:59:34;;;;;;;;;;;13.10;77.30;;;;;;5091713;28;20358;-78
2022/05/14 06:02:00;;;;;;;;;;;13.20;77.00;;;;;;5109739;28;19912;-77
2022/05/14 06:04:26;;;;;;;;;;;13.40;77.00;;;;;;5091301;28;20318;-79
2022/05/14 06:06:51;;;;;;;;;;;13.70;77.20;;;;;;5109725;28;19915;-76
2022/05/14 06:09:22;;;;;;;;;;;14.10;76.80;;;;;;5091458;28;20301;-78
2022/05/14 06:11:48;;;;;;;;;;;14.40;76.00;;;;;;5091266;28;19998;-79
2022/05/14 06:14:14;;;;;;;;;;;14.60;75.60;;;;;;5091333;28;19912;-77
2022/05/14 06:16:40;;;;;;;;;;;14.60;75.50;;;;;;5091401;28;20367;-76
2022/05/14 06:19:05;;;;;;;;;;;14.70;75.50;;;;;;5091150;28;20006;-77
2022/05/14 06:21:31;;;;;;;;;;;14.70;75.60;;;;;;5091043;28;19915;-77
2022/05/14 06:23:57;;;;;;;;;;;14.80;75.80;;;;;;5109329;28;19916;-78
2022/05/14 06:26:23;;;;;;;;;;;15.00;76.10;;;;;;5109324;28;20357;-78
2022/05/14 06:28:48;;;;;;;;;;;15.60;75.90;;;;;;5091084;28;20022;-77
2022/05/14 06:31:16;;;;;;;;;;;16.20;75.20;;;;;;5108988;28;19915;-78
2022/05/14 06:33:46;;;;;;;;;;;16.70;74.50;;;;;;5109186;28;20009;-78
2022/05/14 06:36:12;;;;;;;;;;;17.30;73.80;;;;;;5090963;28;19942;-80
2022/05/14 06:38:38;;;;;;;;;;;17.80;72.70;;;;;;5109022;28;19919;-77
2022/05/14 06:41:09;;;;;;;;;;;18.00;72.10;;;;;;5090750;28;19908;-76
2022/05/14 06:43:34;;;;;;;;;;;17.80;71.60;;;;;;5108968;28;19973;-77
2022/05/14 06:46:00;;;;;;;;;;;17.40;72.30;;;;;;5090654;28;19912;-78
2022/05/14 06:48:25;;;;;;;;;;;17.00;72.40;;;;;;5073556;28;20097;-77
2022/05/14 06:50:51;;;;;;;;;;;16.60;72.90;;;;;;5108871;28;19916;-78
2022/05/14 06:53:18;;;;;;;;;;;16.30;73.50;;;;;;5109016;28;20244;-79
2022/05/14 06:55:46;;;;;;;;;;;16.10;73.90;;;;;;5108906;28;20021;-78
2022/05/14 06:58:14;;;;;;;;;;;16.00;74.40;;;;;;5108910;28;20002;-78
2022/05/14 07:00:40;;;;;;;;;;;15.90;74.60;;;;;;5090517;28;19951;-77
2022/05/14 07:08:35;;;;;;;;;;;16.30;76.00;;;;;;5108564;28;19922;-75
2022/05/14 07:11:01;;;;;;;;;;;17.60;76.10;;;;;;5090497;28;19911;-78
2022/05/14 07:13:27;;;;;;;;;;;19.00;74.70;;;;;;5108349;28;19914;-76
2022/05/14 07:15:52;;;;;;;;;;;20.10;72.60;;;;;;5108427;28;19916;-78
2022/05/14 07:18:18;;;;;;;;;;;21.00;71.30;;;;;;5089649;28;19957;-78
2022/05/14 07:20:43;;;;;;;;;;;22.00;70.40;;;;;;5108041;28;19915;-78
2022/05/14 07:23:09;;;;;;;;;;;22.70;69.60;;;;;;5107958;28;19911;-76
2022/05/14 07:25:34;;;;;;;;;;;23.50;69.40;;;;;;5107590;28;19918;-79
2022/05/14 07:28:00;;;;;;;;;;;24.10;68.70;;;;;;5107712;28;19990;-78
2022/05/14 07:30:25;;;;;;;;;;;24.40;68.90;;;;;;5107543;28;19916;-77
2022/05/14 07:32:51;;;;;;;;;;;25.10;69.50;;;;;;5107683;28;19912;-78
2022/05/14 07:35:17;;;;;;;;;;;25.30;68.20;;;;;;5107814;28;19916;-77
2022/05/14 07:37:44;;;;;;;;;;;25.60;67.30;;;;;;5089801;28;19995;-73
2022/05/14 07:40:11;;;;;;;;;;;25.40;64.80;;;;;;5107988;28;19915;-74
2022/05/14 07:42:42;;;;;;;;;;;24.90;65.20;;;;;;5089099;28;19921;-76
2022/05/14 07:45:10;;;;;;;;;;;24.70;66.80;;;;;;5107672;28;20376;-76
2022/05/14 07:47:35;;;;;;;;;;;24.80;65.70;;;;;;5089188;28;19916;-76
2022/05/14 07:50:02;;;;;;;;;;;25.10;66.80;;;;;;5107776;28;20333;-77
2022/05/14 07:52:27;;;;;;;;;;;25.90;66.70;;;;;;5107789;28;20345;-78
2022/05/14 07:54:53;;;;;;;;;;;26.50;66.30;;;;;;5107522;28;19965;-76
2022/05/14 07:57:19;;;;;;;;;;;26.10;64.40;;;;;;5107609;28;20011;-78
2022/05/14 07:59:45;;;;;;;;;;;25.30;64.10;;;;;;5107415;28;19915;-75
2022/05/14 08:02:24;;;;;;;;;;;24.30;64.70;;;;;;5107296;28;19969;-75
2022/05/14 08:04:50;;;;;;;;;;;24.50;66.00;;;;;;5107806;28;19915;-77
2022/05/14 08:07:15;;;;;;;;;;;25.30;66.20;;;;;;5089321;28;19918;-76
2022/05/14 08:09:41;;;;;;;;;;;26.10;66.10;;;;;;5107571;28;20269;-75
2022/05/14 08:12:07;;;;;;;;;;;26.70;66.20;;;;;;5112071;28;20018;-77
2022/05/14 08:14:33;;;;;;;;;;;27.20;65.80;;;;;;5111695;28;19914;-76
2022/05/14 08:16:59;;;;;;;;;;;28.00;66.40;;;;;;5111374;28;19967;-77
2022/05/14 08:19:24;;;;;;;;;;;28.90;65.10;;;;;;5093113;28;19916;-77
2022/05/14 08:24:34;;;;;;;;;;;29.40;64.90;;;;;;5112354;28;19919;-80
2022/05/14 08:27:02;;;;;;;;;;;29.90;65.70;;;;;;5111189;28;19920;-78
2022/05/14 08:29:27;;;;;;;;;;;30.30;65.50;;;;;;5110858;28;20073;-78
2022/05/14 08:31:54;;;;;;;;;;;30.90;64.80;;;;;;5111524;28;20007;-79
2022/05/14 08:34:19;;;;;;;;;;;30.90;62.20;;;;;;5092605;28;20365;-78
2022/05/14 08:36:45;;;;;;;;;;;30.80;61.80;;;;;;5110870;28;19912;-78
2022/05/14 08:39:11;;;;;;;;;;;30.40;61.20;;;;;;5092626;28;20010;-76
2022/05/14 08:41:39;;;;;;;;;;;29.40;61.20;;;;;;5092701;28;19927;-76
2022/05/14 08:44:07;;;;;;;;;;;28.50;62.40;;;;;;5110734;28;20302;-77
2022/05/14 08:46:33;;;;;;;;;;;28.30;63.80;;;;;;5110786;28;19930;-77
2022/05/14 08:49:06;;;;;;;;;;;29.00;64.00;;;;;;5110635;28;19908;-77
2022/05/14 08:51:33;;;;;;;;;;;30.00;64.20;;;;;;5110542;28;19917;-77
2022/05/14 08:53:59;;;;;;;;;;;31.00;64.30;;;;;;5110648;28;19907;-77
2022/05/14 08:56:28;;;;;;;;;;;31.80;63.50;;;;;;5110348;28;19908;-79
2022/05/14 08:59:12;;;;;;;;;;;32.30;63.80;;;;;;5092125;28;19907;-77
2022/05/14 09:01:39;;;;;;;;;;;32.40;64.50;;;;;;5110959;28;19912;-77
2022/05/14 09:04:07;;;;;;;;;;;32.60;63.10;;;;;;5110645;28;19912;-78
2022/05/14 09:06:32;;;;;;;;;;;32.90;63.30;;;;;;5092092;28;20270;-78
2022/05/14 09:08:58;;;;;;;;;;;33.60;63.40;;;;;;5110336;28;19911;-77
2022/05/14 09:11:25;;;;;;;;;;;34.10;63.30;;;;;;5110748;28;20023;-77
2022/05/14 09:13:56;;;;;;;;;;;34.20;62.10;;;;;;5111069;28;19966;-77
2022/05/14 09:16:24;;;;;;;;;;;34.40;62.30;;;;;;5101913;28;19915;-78
2022/05/14 09:18:50;;;;;;;;;;;34.80;62.70;;;;;;5090124;28;20342;-78
2022/05/14 09:21:23;;;;;;;;;;;35.00;61.90;;;;;;5089578;28;19951;-80
2022/05/14 09:23:59;;;;;;;;;;;35.10;61.30;;;;;;5090073;28;20261;-79
2022/05/14 09:26:24;;;;;;;;;;;35.20;60.20;;;;;;5077661;28;19912;-78
2022/05/14 09:28:57;;;;;;;;;;;35.20;57.70;;;;;;5098620;28;20286;-79
2022/05/14 09:31:24;;;;;;;;;;;35.10;58.70;;;;;;5101622;28;19948;-78
2022/05/14 09:33:59;;;;;;;;;;;35.10;59.70;;;;;;5106091;28;19914;-78
2022/05/14 09:36:28;;;;;;;;;;;35.20;59.40;;;;;;5081358;28;20417;-79
2022/05/14 09:39:25;;;;;;;;;;;35.30;59.60;;;;;;5102515;28;20505;-77
2022/05/14 09:42:01;;;;;;;;;;;35.50;59.10;;;;;;5045597;28;19994;-75
2022/05/14 09:44:47;;;;;;;;;;;35.20;57.80;;;;;;5098669;28;19952;-77
2022/05/14 09:47:14;;;;;;;;;;;35.00;56.10;;;;;;5095029;28;19916;-78
2022/05/14 09:49:41;;;;;;;;;;;34.90;56.30;;;;;;5099367;28;19947;-75
2022/05/14 09:52:13;;;;;;;;;;;35.00;57.20;;;;;;5099996;28;19918;-78
2022/05/14 09:54:38;;;;;;;;;;;34.50;57.60;;;;;;5097416;28;20483;-77
2022/05/14 09:57:18;;;;;;;;;;;33.50;58.50;;;;;;5100130;28;19913;-75
2022/05/14 09:59:50;;;;;;;;;;;32.70;59.10;;;;;;5085334;28;19969;-76
2022/05/14 10:02:18;;;;;;;;;;;31.80;57.30;;;;;;5085029;28;19937;-75
2022/05/14 10:04:53;;;;;;;;;;;31.40;58.00;;;;;;5102460;28;19926;-75
2022/05/14 10:07:22;;;;;;;;;;;31.40;57.20;;;;;;5098984;28;19939;-74
2022/05/14 10:10:06;;;;;;;;;;;31.90;58.50;;;;;;5095469;28;19919;-76
2022/05/14 10:12:34;;;;;;;;;;;32.40;58.80;;;;;;5089615;28;19916;-75
2022/05/14 10:15:00;;;;;;;;;;;32.30;57.40;;;;;;5072056;28;20284;-76
2022/05/14 10:17:26;;;;;;;;;;;32.10;57.40;;;;;;5071494;28;19928;-78
2022/05/14 10:20:00;;;;;;;;;;;31.80;58.20;;;;;;5089772;28;19974;-78
2022/05/14 10:28:24;;;;;;;;;;;33.10;54.70;;;;;;5089068;28;19965;-74
2022/05/14 10:30:55;;;;;;;;;;;32.60;54.50;;;;;;5089444;28;19912;-79
2022/05/14 10:33:23;;;;;;;;;;;32.00;55.00;;;;;;5089491;28;19967;-76
2022/05/14 10:35:49;;;;;;;;;;;31.10;54.50;;;;;;5070974;28;19939;-76
2022/05/14 10:38:17;;;;;;;;;;;30.50;56.10;;;;;;5089262;28;20333;-76
2022/05/14 10:40:43;;;;;;;;;;;31.00;57.50;;;;;;5089216;28;19912;-75
2022/05/14 10:43:16;;;;;;;;;;;32.20;57.70;;;;;;5088968;28;19953;-78
2022/05/14 10:45:43;;;;;;;;;;;33.20;56.70;;;;;;5070738;28;20452;-75
2022/05/14 10:48:18;;;;;;;;;;;33.80;54.00;;;;;;5066546;28;19917;-75
2022/05/14 10:50:44;;;;;;;;;;;34.30;54.80;;;;;;5068291;28;19916;-74
2022/05/14 10:53:10;;;;;;;;;;;34.90;54.80;;;;;;5065569;28;19936;-75
2022/05/14 10:55:43;;;;;;;;;;;35.60;55.50;;;;;;5068773;28;19917;-77
2022/05/14 10:58:19;;;;;;;;;;;36.00;54.90;;;;;;5067373;28;20282;-76
2022/05/14 11:00:46;;;;;;;;;;;35.80;51.30;;;;;;5068424;28;19908;-76
2022/05/14 11:03:22;;;;;;;;;;;35.10;52.10;;;;;;5068710;28;19917;-76
2022/05/14 11:06:00;;;;;;;;;;;34.60;53.30;;;;;;5068786;28;20270;-77
2022/05/14 11:08:52;;;;;;;;;;;34.80;54.60;;;;;;5074184;28;19920;-79
2022/05/14 11:11:25;;;;;;;;;;;35.10;54.90;;;;;;5068369;28;20265;-77
2022/05/14 11:14:05;;;;;;;;;;;35.50;54.40;;;;;;5077528;28;20010;-77
2022/05/14 11:16:39;;;;;;;;;;;35.80;55.10;;;;;;5072754;28;20255;-78
2022/05/14 11:19:05;;;;;;;;;;;36.40;55.20;;;;;;5078803;28;19947;-72
2022/05/14 11:21:35;;;;;;;;;;;36.00;55.20;;;;;;5067088;28;19908;-74
2022/05/14 11:24:01;;;;;;;;;;;35.40;55.30;;;;;;5066766;28;19935;-73
2022/05/14 11:26:27;;;;;;;;;;;34.90;54.60;;;;;;5066578;28;20235;-76
2022/05/14 11:29:11;;;;;;;;;;;34.90;54.80;;;;;;5067420;28;19916;-77
2022/05/14 11:31:42;;;;;;;;;;;34.80;52.60;;;;;;5068621;28;19923;-77
2022/05/14 11:34:19;;;;;;;;;;;34.90;53.70;;;;;;5068387;28;19912;-76
2022/05/14 11:36:46;;;;;;;;;;;34.90;53.50;;;;;;5067127;28;19915;-76
2022/05/14 11:39:21;;;;;;;;;;;34.60;53.40;;;;;;5067958;28;19911;-76
2022/05/14 11:41:48;;;;;;;;;;;34.00;53.50;;;;;;5067281;28;19908;-80
2022/05/14 11:44:25;;;;;;;;;;;33.60;54.20;;;;;;5067805;28;19919;-80
2022/05/14 11:46:51;;;;;;;;;;;33.70;54.80;;;;;;5077805;28;20060;-78
2022/05/14 11:49:24;;;;;;;;;;;33.20;54.10;;;;;;5092308;28;20671;-78
2022/05/14 11:52:05;;;;;;;;;;;32.40;54.40;;;;;;5092250;28;19927;-79
2022/05/14 11:54:41;;;;;;;;;;;31.70;54.60;;;;;;5074241;28;19957;-78
2022/05/14 11:57:12;;;;;;;;;;;31.00;54.90;;;;;;5092855;28;19908;-78
2022/05/14 11:59:41;;;;;;;;;;;30.70;54.50;;;;;;5092936;28;19912;-73
2022/05/14 12:02:12;;;;;;;;;;;30.60;54.20;;;;;;5092797;28;19919;-77
2022/05/14 12:04:40;;;;;;;;;;;31.00;54.80;;;;;;5073993;28;19912;-79
2022/05/14 12:07:12;;;;;;;;;;;31.80;54.30;;;;;;5091955;28;19908;-81
2022/05/14 12:10:13;;;;;;;;;;;32.60;54.40;;;;;;5091935;28;19916;-80
2022/05/14 12:12:43;;;;;;;;;;;33.40;54.00;;;;;;4994005;28;19909;-77
2022/05/14 12:15:10;;;;;;;;;;;34.30;53.80;;;;;;5077122;28;19912;-75
2022/05/14 12:17:36;;;;;;;;;;;34.80;52.70;;;;;;5091981;28;20337;-77
2022/05/14 12:20:03;;;;;;;;;;;34.80;51.80;;;;;;5091729;28;19912;-75
2022/05/14 12:22:32;;;;;;;;;;;34.70;52.00;;;;;;5079207;28;19923;-76
2022/05/14 12:25:03;;;;;;;;;;;34.30;52.70;;;;;;5099010;28;19916;-80
2022/05/14 12:27:30;;;;;;;;;;;34.40;52.40;;;;;;5098485;28;19908;-78
2022/05/14 12:30:00;;;;;;;;;;;34.30;50.90;;;;;;5086868;28;19916;-79
2022/05/14 12:35:28;;;;;;;;;;;33.90;50.40;;;;;;5110693;28;20315;-79
2022/05/14 12:37:55;;;;;;;;;;;33.40;50.40;;;;;;5113314;28;19916;-77
2022/05/14 12:40:24;;;;;;;;;;;32.40;49.50;;;;;;5112947;28;19907;-78
2022/05/14 12:42:50;;;;;;;;;;;31.30;49.60;;;;;;5112018;28;19966;-76
2022/05/14 12:45:16;;;;;;;;;;;30.40;50.20;;;;;;5093264;28;19938;-77
2022/05/14 12:47:42;;;;;;;;;;;29.70;50.60;;;;;;5090836;28;20347;-78
2022/05/14 12:50:22;;;;;;;;;;;29.10;51.20;;;;;;5093692;28;19942;-79
2022/05/14 12:52:58;;;;;;;;;;;28.60;51.90;;;;;;5090688;28;19915;-77
2022/05/14 12:55:25;;;;;;;;;;;28.50;52.30;;;;;;5089947;28;20344;-77
2022/05/14 12:57:51;;;;;;;;;;;28.00;52.20;;;;;;5092629;28;19943;-78
2022/05/14 13:00:17;;;;;;;;;;;27.70;52.50;;;;;;5073860;28;19965;-77
2022/05/14 13:02:58;;;;;;;;;;;27.40;52.60;;;;;;5092101;28;19919;-77
2022/05/14 13:05:30;;;;;;;;;;;27.30;52.60;;;;;;5091116;28;19915;-76
2022/05/14 13:08:03;;;;;;;;;;;27.20;52.70;;;;;;5089293;28;19918;-76
2022/05/14 13:10:30;;;;;;;;;;;27.10;52.50;;;;;;5088840;28;20034;-75
2022/05/14 13:12:58;;;;;;;;;;;27.00;52.90;;;;;;5088697;28;19912;-73
2022/05/14 13:15:37;;;;;;;;;;;27.00;53.10;;;;;;5089617;28;19908;-76
2022/05/14 13:18:13;;;;;;;;;;;27.10;53.00;;;;;;5088995;28;19908;-74
2022/05/14 13:20:39;;;;;;;;;;;27.00;52.70;;;;;;5091398;28;19908;-77
2022/05/14 13:23:31;;;;;;;;;;;26.70;52.50;;;;;;5090735;28;19912;-76
2022/05/14 13:25:59;;;;;;;;;;;26.60;52.60;;;;;;5083281;28;19923;-77
2022/05/14 13:28:27;;;;;;;;;;;26.30;52.50;;;;;;5081992;28;20322;-78
2022/05/14 13:30:52;;;;;;;;;;;26.20;52.70;;;;;;5079968;28;19955;-75
2022/05/14 13:33:28;;;;;;;;;;;26.20;52.30;;;;;;5085146;28;19943;-76
2022/05/14 13:38:43;;;;;;;;;;;25.80;52.30;;;;;;5082534;28;19923;-76
2022/05/14 13:41:22;;;;;;;;;;;25.70;52.60;;;;;;5078654;28;19958;-77
2022/05/14 13:43:56;;;;;;;;;;;25.80;52.70;;;;;;5080670;28;19944;-76
2022/05/14 13:46:23;;;;;;;;;;;25.60;52.40;;;;;;5077222;28;19912;-77
2022/05/14 13:48:50;;;;;;;;;;;25.40;52.50;;;;;;5100738;28;19922;-76
2022/05/14 13:51:18;;;;;;;;;;;25.10;52.50;;;;;;5097540;28;20022;-76
2022/05/14 13:53:46;;;;;;;;;;;24.60;52.50;;;;;;5082643;28;19912;-76
2022/05/14 13:56:13;;;;;;;;;;;24.50;52.90;;;;;;5099719;28;19912;-75
2022/05/14 13:58:54;;;;;;;;;;;24.50;53.10;;;;;;5100100;28;19952;-76
2022/05/14 14:01:33;;;;;;;;;;;24.40;53.30;;;;;;5083354;28;19912;-75
2022/05/14 14:03:59;;;;;;;;;;;24.30;53.30;;;;;;5111141;28;19919;-76
2022/05/14 14:06:27;;;;;;;;;;;24.20;53.20;;;;;;5112107;28;19932;-76
2022/05/14 14:08:53;;;;;;;;;;;24.10;53.30;;;;;;5110901;28;19912;-77
2022/05/14 14:11:22;;;;;;;;;;;23.90;53.30;;;;;;5111500;28;20261;-75
2022/05/14 14:13:48;;;;;;;;;;;23.60;53.70;;;;;;5111276;28;19930;-77
2022/05/14 14:16:13;;;;;;;;;;;23.40;54.20;;;;;;5110410;28;19907;-77
2022/05/14 14:18:39;;;;;;;;;;;23.50;54.40;;;;;;5110183;28;19912;-76
2022/05/14 14:21:06;;;;;;;;;;;23.60;54.40;;;;;;5092511;28;19912;-77
2022/05/14 14:23:34;;;;;;;;;;;23.80;54.50;;;;;;5109975;28;19924;-76
2022/05/14 14:26:00;;;;;;;;;;;23.90;54.10;;;;;;5109790;28;20360;-73
2022/05/14 14:28:27;;;;;;;;;;;23.90;54.20;;;;;;5109843;28;19912;-73
2022/05/14 14:30:53;;;;;;;;;;;23.80;54.00;;;;;;5109676;28;19965;-77
2022/05/14 14:33:19;;;;;;;;;;;23.70;54.10;;;;;;5109672;28;20494;-73
2022/05/14 14:35:44;;;;;;;;;;;23.70;54.30;;;;;;5109452;28;19912;-75
2022/05/14 14:38:11;;;;;;;;;;;23.60;54.00;;;;;;5109186;28;19914;-74
2022/05/14 14:40:37;;;;;;;;;;;23.40;54.10;;;;;;5109291;28;19908;-73
2022/05/14 14:43:02;;;;;;;;;;;23.20;54.50;;;;;;5090307;28;20378;-74
2022/05/14 14:45:28;;;;;;;;;;;23.10;54.80;;;;;;5090279;28;19915;-76
2022/05/14 14:47:54;;;;;;;;;;;23.10;54.50;;;;;;5073349;28;19976;-73
2022/05/14 14:50:21;;;;;;;;;;;23.00;54.90;;;;;;5108736;28;19977;-75